sensor_id;sensor_type;location;lat;lon;timestamp;pressure;altitude;pressure_sealevel;temperature;humidity
22651;BME280;11492;42.646;23.400;2023-05-24T00:01:45;94841.41;;;13.26;68.98
22651;BME280;11492;42.646;23.400;2023-05-24T00:04:10;94841.63;;;13.25;69.31
22651;BME280;11492;42.646;23.400;2023-05-24T00:06:36;94835.63;;;13.18;68.97
22651;BME280;11492;42.646;23.400;2023-05-24T00:09:02;94846.56;;;13.07;70.27
22651;BME280;11492;42.646;23.400;2023-05-24T00:11:28;94842.53;;;12.73;70.69
22651;BME280;11492;42.646;23.400;2023-05-24T00:13:53;94831.50;;;12.58;71.94
22651;BME280;11492;42.646;23.400;2023-05-24T00:16:19;94842.00;;;12.50;71.73
22651;BME280;11492;42.646;23.400;2023-05-24T00:18:44;94847.00;;;12.52;72.44
22651;BME280;11492;42.646;23.400;2023-05-24T00:21:12;94839.22;;;12.52;71.92
22651;BME280;11492;42.646;23.400;2023-05-24T00:23:38;94838.47;;;12.58;71.30
22651;BME280;11492;42.646;23.400;2023-05-24T00:26:04;94841.66;;;12.66;71.62
22651;BME280;11492;42.646;23.400;2023-05-24T00:28:30;94844.00;;;12.48;72.93
22651;BME280;11492;42.646;23.400;2023-05-24T00:30:57;94839.84;;;12.54;72.30
22651;BME280;11492;42.646;23.400;2023-05-24T00:33:23;94840.22;;;12.57;71.61
22651;BME280;11492;42.646;23.400;2023-05-24T00:35:49;94852.59;;;12.62;72.09
22651;BME280;11492;42.646;23.400;2023-05-24T00:38:21;94840.44;;;12.62;71.60
22651;BME280;11492;42.646;23.400;2023-05-24T00:40:46;94842.13;;;12.82;70.92
22651;BME280;11492;42.646;23.400;2023-05-24T00:43:13;94836.16;;;12.82;71.43
22651;BME280;11492;42.646;23.400;2023-05-24T00:45:38;94828.38;;;12.75;71.20
22651;BME280;11492;42.646;23.400;2023-05-24T00:48:04;94834.31;;;12.70;71.55
22651;BME280;11492;42.646;23.400;2023-05-24T00:50:29;94829.56;;;12.73;72.16
22651;BME280;11492;42.646;23.400;2023-05-24T00:52:56;94839.94;;;12.79;71.50
22651;BME280;11492;42.646;23.400;2023-05-24T00:55:24;94830.97;;;12.82;71.37
22651;BME280;11492;42.646;23.400;2023-05-24T00:57:51;94838.38;;;12.85;71.24
22651;BME280;11492;42.646;23.400;2023-05-24T01:00:17;94833.19;;;12.78;71.21
22651;BME280;11492;42.646;23.400;2023-05-24T01:02:42;94833.19;;;12.78;71.42
22651;BME280;11492;42.646;23.400;2023-05-24T01:05:08;94819.94;;;12.67;71.58
22651;BME280;11492;42.646;23.400;2023-05-24T01:08:19;94828.31;;;12.63;72.27
22651;BME280;11492;42.646;23.400;2023-05-24T01:10:54;94836.91;;;12.63;72.32
22651;BME280;11492;42.646;23.400;2023-05-24T01:13:31;94825.09;;;12.54;72.70
22651;BME280;11492;42.646;23.400;2023-05-24T01:16:06;94836.06;;;12.56;72.37
22651;BME280;11492;42.646;23.400;2023-05-24T01:18:40;94837.28;;;12.60;72.75
22651;BME280;11492;42.646;23.400;2023-05-24T01:29:25;94855.19;;;12.55;73.77
22651;BME280;11492;42.646;23.400;2023-05-24T01:31:50;94863.34;;;12.52;72.90
22651;BME280;11492;42.646;23.400;2023-05-24T01:34:16;94862.53;;;12.52;72.41
22651;BME280;11492;42.646;23.400;2023-05-24T01:36:42;94853.69;;;11.94;75.50
22651;BME280;11492;42.646;23.400;2023-05-24T01:39:07;94846.78;;;12.01;75.29
22651;BME280;11492;42.646;23.400;2023-05-24T01:41:40;94851.84;;;11.82;75.94
22651;BME280;11492;42.646;23.400;2023-05-24T01:44:25;94853.50;;;11.62;76.21
22651;BME280;11492;42.646;23.400;2023-05-24T01:47:04;94855.31;;;11.68;77.11
22651;BME280;11492;42.646;23.400;2023-05-24T01:49:37;94858.91;;;11.67;76.48
22651;BME280;11492;42.646;23.400;2023-05-24T01:52:15;94849.31;;;11.61;76.48
22651;BME280;11492;42.646;23.400;2023-05-24T01:54:44;94855.09;;;11.63;77.45
22651;BME280;11492;42.646;23.400;2023-05-24T01:57:12;94850.19;;;11.74;77.28
22651;BME280;11492;42.646;23.400;2023-05-24T01:59:41;94837.44;;;11.73;76.55
22651;BME280;11492;42.646;23.400;2023-05-24T02:02:08;94844.53;;;11.92;76.44
22651;BME280;11492;42.646;23.400;2023-05-24T02:04:34;94851.53;;;11.97;76.51
22651;BME280;11492;42.646;23.400;2023-05-24T02:06:59;94855.50;;;12.00;76.12
22651;BME280;11492;42.646;23.400;2023-05-24T02:09:25;94852.34;;;12.04;75.64
22651;BME280;11492;42.646;23.400;2023-05-24T02:11:50;94854.94;;;12.04;76.36
22651;BME280;11492;42.646;23.400;2023-05-24T02:14:15;94847.97;;;12.05;75.18
22651;BME280;11492;42.646;23.400;2023-05-24T02:16:44;94843.00;;;12.03;75.35
22651;BME280;11492;42.646;23.400;2023-05-24T02:19:14;94833.44;;;12.04;75.76
22651;BME280;11492;42.646;23.400;2023-05-24T02:21:39;94834.78;;;11.94;75.63
22651;BME280;11492;42.646;23.400;2023-05-24T02:24:05;94838.38;;;11.93;76.23
22651;BME280;11492;42.646;23.400;2023-05-24T02:26:32;94833.56;;;11.90;76.22
22651;BME280;11492;42.646;23.400;2023-05-24T02:28:57;94832.41;;;11.92;75.97
22651;BME280;11492;42.646;23.400;2023-05-24T02:31:23;94837.16;;;11.89;75.95
22651;BME280;11492;42.646;23.400;2023-05-24T02:33:53;94834.16;;;11.85;76.31
22651;BME280;11492;42.646;23.400;2023-05-24T02:36:18;94839.13;;;11.87;76.17
22651;BME280;11492;42.646;23.400;2023-05-24T02:38:44;94838.31;;;11.80;76.26
22651;BME280;11492;42.646;23.400;2023-05-24T02:41:09;94838.66;;;11.77;76.15
22651;BME280;11492;42.646;23.400;2023-05-24T02:43:36;94827.91;;;11.73;76.90
22651;BME280;11492;42.646;23.400;2023-05-24T02:46:01;94828.09;;;11.72;76.48
22651;BME280;11492;42.646;23.400;2023-05-24T02:48:27;94825.16;;;11.75;76.42
22651;BME280;11492;42.646;23.400;2023-05-24T02:50:52;94834.06;;;11.72;75.78
22651;BME280;11492;42.646;23.400;2023-05-24T02:53:18;94837.59;;;11.65;77.24
22651;BME280;11492;42.646;23.400;2023-05-24T02:55:43;94825.63;;;11.64;76.84
22651;BME280;11492;42.646;23.400;2023-05-24T02:58:10;94824.06;;;11.63;76.21
22651;BME280;11492;42.646;23.400;2023-05-24T03:00:36;94837.44;;;11.73;76.25
22651;BME280;11492;42.646;23.400;2023-05-24T03:03:02;94839.03;;;11.74;75.87
22651;BME280;11492;42.646;23.400;2023-05-24T03:05:27;94832.03;;;11.68;76.47
22651;BME280;11492;42.646;23.400;2023-05-24T03:07:53;94837.09;;;11.76;75.56
22651;BME280;11492;42.646;23.400;2023-05-24T03:10:18;94837.44;;;11.73;75.59
22651;BME280;11492;42.646;23.400;2023-05-24T03:12:44;94830.81;;;11.64;76.16
22651;BME280;11492;42.646;23.400;2023-05-24T03:15:09;94838.22;;;11.67;76.31
22651;BME280;11492;42.646;23.400;2023-05-24T03:17:35;94848.19;;;11.70;76.33
22651;BME280;11492;42.646;23.400;2023-05-24T03:20:00;94856.63;;;11.85;76.68
22651;BME280;11492;42.646;23.400;2023-05-24T03:22:26;94847.13;;;11.92;77.48
22651;BME280;11492;42.646;23.400;2023-05-24T03:24:51;94854.31;;;11.96;75.62
22651;BME280;11492;42.646;23.400;2023-05-24T03:27:17;94843.19;;;11.96;76.02
22651;BME280;11492;42.646;23.400;2023-05-24T03:29:42;94852.19;;;12.06;75.38
22651;BME280;11492;42.646;23.400;2023-05-24T03:32:08;94858.41;;;12.18;74.30
22651;BME280;11492;42.646;23.400;2023-05-24T03:34:33;94852.66;;;12.22;74.70
22651;BME280;11492;42.646;23.400;2023-05-24T03:36:58;94859.84;;;12.26;74.06
22651;BME280;11492;42.646;23.400;2023-05-24T03:39:24;94867.22;;;12.29;75.09
22651;BME280;11492;42.646;23.400;2023-05-24T03:41:49;94864.50;;;12.37;74.97
22651;BME280;11492;42.646;23.400;2023-05-24T03:44:15;94866.53;;;12.48;74.05
22651;BME280;11492;42.646;23.400;2023-05-24T03:46:40;94872.53;;;12.61;73.10
22651;BME280;11492;42.646;23.400;2023-05-24T03:49:06;94871.34;;;12.64;73.61
22651;BME280;11492;42.646;23.400;2023-05-24T03:51:32;94864.97;;;12.66;74.52
22651;BME280;11492;42.646;23.400;2023-05-24T03:53:57;94850.66;;;12.70;73.99
22651;BME280;11492;42.646;23.400;2023-05-24T03:56:23;94860.69;;;12.79;74.72
22651;BME280;11492;42.646;23.400;2023-05-24T03:58:48;94856.88;;;12.82;75.10
22651;BME280;11492;42.646;23.400;2023-05-24T04:01:16;94851.69;;;12.82;74.23
22651;BME280;11492;42.646;23.400;2023-05-24T04:03:42;94862.91;;;12.89;73.52
22651;BME280;11492;42.646;23.400;2023-05-24T04:06:10;94863.88;;;12.88;73.38
22651;BME280;11492;42.646;23.400;2023-05-24T04:08:36;94870.28;;;12.98;73.43
22651;BME280;11492;42.646;23.400;2023-05-24T04:11:01;94869.69;;;13.02;73.69
22651;BME280;11492;42.646;23.400;2023-05-24T04:13:27;94871.91;;;13.05;71.97
22651;BME280;11492;42.646;23.400;2023-05-24T04:15:52;94861.31;;;13.07;71.66
22651;BME280;11492;42.646;23.400;2023-05-24T04:18:18;94867.88;;;12.96;71.28
22651;BME280;11492;42.646;23.400;2023-05-24T04:20:43;94868.91;;;13.08;71.55
22651;BME280;11492;42.646;23.400;2023-05-24T04:23:09;94870.09;;;13.12;70.44
22651;BME280;11492;42.646;23.400;2023-05-24T04:25:34;94879.31;;;13.21;70.06
22651;BME280;11492;42.646;23.400;2023-05-24T04:28:00;94868.94;;;13.21;70.72
22651;BME280;11492;42.646;23.400;2023-05-24T04:30:28;94879.13;;;13.42;70.98
22651;BME280;11492;42.646;23.400;2023-05-24T04:32:55;94877.91;;;13.44;70.25
22651;BME280;11492;42.646;23.400;2023-05-24T04:35:21;94881.50;;;13.49;69.68
22651;BME280;11492;42.646;23.400;2023-05-24T04:37:46;94885.72;;;13.63;68.97
22651;BME280;11492;42.646;23.400;2023-05-24T04:40:14;94876.34;;;13.62;69.43
22651;BME280;11492;42.646;23.400;2023-05-24T04:42:40;94867.97;;;13.67;69.20
22651;BME280;11492;42.646;23.400;2023-05-24T04:45:06;94873.94;;;13.80;68.98
22651;BME280;11492;42.646;23.400;2023-05-24T04:47:32;94887.91;;;13.72;68.91
22651;BME280;11492;42.646;23.400;2023-05-24T04:49:57;94897.50;;;13.72;68.48
22651;BME280;11492;42.646;23.400;2023-05-24T04:52:23;94902.88;;;13.96;68.57
22651;BME280;11492;42.646;23.400;2023-05-24T04:54:48;94903.28;;;13.99;69.40
22651;BME280;11492;42.646;23.400;2023-05-24T04:57:15;94908.88;;;14.09;67.87
22651;BME280;11492;42.646;23.400;2023-05-24T04:59:41;94904.66;;;14.21;68.59
22651;BME280;11492;42.646;23.400;2023-05-24T05:02:06;94901.19;;;14.46;68.71
22651;BME280;11492;42.646;23.400;2023-05-24T05:04:32;94900.53;;;14.63;69.04
22651;BME280;11492;42.646;23.400;2023-05-24T05:06:57;94894.28;;;14.77;68.85
22651;BME280;11492;42.646;23.400;2023-05-24T05:09:23;94908.59;;;14.98;68.60
22651;BME280;11492;42.646;23.400;2023-05-24T05:11:49;94906.00;;;14.98;69.10
22651;BME280;11492;42.646;23.400;2023-05-24T05:14:14;94914.00;;;14.97;68.92
22651;BME280;11492;42.646;23.400;2023-05-24T05:16:41;94891.00;;;14.94;68.43
22651;BME280;11492;42.646;23.400;2023-05-24T05:19:06;94904.78;;;15.01;68.47
22651;BME280;11492;42.646;23.400;2023-05-24T05:21:33;94912.38;;;15.02;69.05
22651;BME280;11492;42.646;23.400;2023-05-24T05:23:59;94891.97;;;14.99;69.24
22651;BME280;11492;42.646;23.400;2023-05-24T05:26:28;94903.78;;;15.02;68.28
22651;BME280;11492;42.646;23.400;2023-05-24T05:28:54;94904.19;;;15.05;68.49
22651;BME280;11492;42.646;23.400;2023-05-24T05:31:20;94911.97;;;15.12;68.03
22651;BME280;11492;42.646;23.400;2023-05-24T05:33:46;94903.69;;;15.21;68.04
22651;BME280;11492;42.646;23.400;2023-05-24T05:36:11;94905.66;;;15.32;67.36
22651;BME280;11492;42.646;23.400;2023-05-24T05:38:37;94909.00;;;15.39;67.28
22651;BME280;11492;42.646;23.400;2023-05-24T05:41:02;94901.81;;;15.34;67.25
22651;BME280;11492;42.646;23.400;2023-05-24T05:43:28;94902.94;;;15.45;66.78
22651;BME280;11492;42.646;23.400;2023-05-24T05:45:54;94908.72;;;15.46;66.77
22651;BME280;11492;42.646;23.400;2023-05-24T05:48:20;94901.78;;;15.41;66.57
22651;BME280;11492;42.646;23.400;2023-05-24T05:50:45;94912.50;;;15.50;66.46
22651;BME280;11492;42.646;23.400;2023-05-24T05:53:11;94905.25;;;15.59;65.88
22651;BME280;11492;42.646;23.400;2023-05-24T05:55:36;94900.75;;;15.72;65.91
22651;BME280;11492;42.646;23.400;2023-05-24T05:58:02;94881.94;;;15.70;65.28
22651;BME280;11492;42.646;23.400;2023-05-24T06:00:27;94894.09;;;15.76;65.13
22651;BME280;11492;42.646;23.400;2023-05-24T06:02:53;94903.78;;;15.93;64.60
22651;BME280;11492;42.646;23.400;2023-05-24T06:05:18;94902.09;;;16.05;64.25
22651;BME280;11492;42.646;23.400;2023-05-24T06:07:44;94910.47;;;16.31;62.13
22651;BME280;11492;42.646;23.400;2023-05-24T06:10:10;94920.91;;;16.48;60.56
22651;BME280;11492;42.646;23.400;2023-05-24T06:12:36;94922.44;;;16.56;60.62
22651;BME280;11492;42.646;23.400;2023-05-24T06:15:03;94921.50;;;16.68;60.34
22651;BME280;11492;42.646;23.400;2023-05-24T06:17:30;94922.59;;;16.78;60.06
22651;BME280;11492;42.646;23.400;2023-05-24T06:19:56;94915.06;;;16.88;59.93
22651;BME280;11492;42.646;23.400;2023-05-24T06:22:21;94907.47;;;17.04;60.12
22651;BME280;11492;42.646;23.400;2023-05-24T06:24:47;94914.03;;;17.24;60.22
22651;BME280;11492;42.646;23.400;2023-05-24T06:27:13;94913.28;;;17.35;59.99
22651;BME280;11492;42.646;23.400;2023-05-24T06:29:39;94912.88;;;17.49;59.85
22651;BME280;11492;42.646;23.400;2023-05-24T06:32:04;94908.72;;;17.60;58.98
22651;BME280;11492;42.646;23.400;2023-05-24T06:34:30;94906.56;;;17.68;58.81
22651;BME280;11492;42.646;23.400;2023-05-24T06:36:55;94910.44;;;17.77;58.84
22651;BME280;11492;42.646;23.400;2023-05-24T06:39:22;94912.28;;;17.88;58.66
22651;BME280;11492;42.646;23.400;2023-05-24T06:41:49;94905.75;;;17.97;58.37
22651;BME280;11492;42.646;23.400;2023-05-24T06:44:16;94910.44;;;18.17;57.99
22651;BME280;11492;42.646;23.400;2023-05-24T06:46:41;94911.22;;;18.29;57.07
22651;BME280;11492;42.646;23.400;2023-05-24T06:49:07;94905.63;;;18.37;56.53
22651;BME280;11492;42.646;23.400;2023-05-24T06:51:33;94898.00;;;18.47;56.16
22651;BME280;11492;42.646;23.400;2023-05-24T06:53:58;94904.25;;;18.57;56.35
22651;BME280;11492;42.646;23.400;2023-05-24T06:56:24;94900.16;;;18.61;56.70
22651;BME280;11492;42.646;23.400;2023-05-24T06:58:51;94903.69;;;18.66;56.50
22651;BME280;11492;42.646;23.400;2023-05-24T07:01:16;94893.22;;;18.66;55.95
22651;BME280;11492;42.646;23.400;2023-05-24T07:03:42;94890.81;;;18.76;55.94
22651;BME280;11492;42.646;23.400;2023-05-24T07:06:08;94901.63;;;18.91;55.87
22651;BME280;11492;42.646;23.400;2023-05-24T07:08:36;94901.94;;;19.05;55.13
22651;BME280;11492;42.646;23.400;2023-05-24T07:11:01;94895.28;;;19.14;55.40
22651;BME280;11492;42.646;23.400;2023-05-24T07:13:27;94896.06;;;19.26;54.59
22651;BME280;11492;42.646;23.400;2023-05-24T07:15:52;94897.59;;;19.38;54.55
22651;BME280;11492;42.646;23.400;2023-05-24T07:18:18;94889.66;;;19.49;54.44
22651;BME280;11492;42.646;23.400;2023-05-24T07:20:43;94885.41;;;19.60;54.35
22651;BME280;11492;42.646;23.400;2023-05-24T07:23:08;94898.72;;;19.70;53.81
22651;BME280;11492;42.646;23.400;2023-05-24T07:25:34;94896.53;;;19.78;53.57
22651;BME280;11492;42.646;23.400;2023-05-24T07:28:00;94903.53;;;19.89;53.17
22651;BME280;11492;42.646;23.400;2023-05-24T07:30:25;94890.94;;;19.91;53.03
22651;BME280;11492;42.646;23.400;2023-05-24T07:32:51;94904.47;;;20.15;53.01
22651;BME280;11492;42.646;23.400;2023-05-24T07:35:17;94900.66;;;20.23;52.52
22651;BME280;11492;42.646;23.400;2023-05-24T07:37:42;94903.25;;;20.39;52.40
22651;BME280;11492;42.646;23.400;2023-05-24T07:40:08;94900.34;;;20.51;51.86
22651;BME280;11492;42.646;23.400;2023-05-24T07:42:37;94912.88;;;20.66;52.35
22651;BME280;11492;42.646;23.400;2023-05-24T07:45:07;94902.22;;;20.72;52.26
22651;BME280;11492;42.646;23.400;2023-05-24T07:47:36;94895.00;;;20.84;52.05
22651;BME280;11492;42.646;23.400;2023-05-24T07:50:01;94901.75;;;20.96;52.33
22651;BME280;11492;42.646;23.400;2023-05-24T07:52:28;94894.72;;;21.01;51.55
22651;BME280;11492;42.646;23.400;2023-05-24T07:54:53;94897.78;;;21.15;50.67
22651;BME280;11492;42.646;23.400;2023-05-24T07:57:19;94889.22;;;21.45;50.28
22651;BME280;11492;42.646;23.400;2023-05-24T07:59:44;94901.94;;;22.05;49.14
22651;BME280;11492;42.646;23.400;2023-05-24T08:02:10;94895.03;;;22.71;47.67
22651;BME280;11492;42.646;23.400;2023-05-24T08:04:38;94890.63;;;23.36;45.79
22651;BME280;11492;42.646;23.400;2023-05-24T08:07:04;94885.78;;;23.94;42.65
22651;BME280;11492;42.646;23.400;2023-05-24T08:09:30;94888.94;;;23.91;42.25
22651;BME280;11492;42.646;23.400;2023-05-24T08:12:03;94886.09;;;24.22;41.89
22651;BME280;11492;42.646;23.400;2023-05-24T08:14:29;94896.38;;;24.82;41.51
22651;BME280;11492;42.646;23.400;2023-05-24T08:16:55;94882.00;;;25.17;40.53
22651;BME280;11492;42.646;23.400;2023-05-24T08:19:20;94889.19;;;25.69;39.88
22651;BME280;11492;42.646;23.400;2023-05-24T08:21:46;94885.88;;;25.87;39.33
22651;BME280;11492;42.646;23.400;2023-05-24T08:24:11;94885.91;;;26.25;38.74
22651;BME280;11492;42.646;23.400;2023-05-24T08:26:37;94892.56;;;26.55;38.00
22651;BME280;11492;42.646;23.400;2023-05-24T08:29:02;94885.22;;;26.75;37.38
22651;BME280;11492;42.646;23.400;2023-05-24T08:31:29;94880.44;;;27.00;36.55
22651;BME280;11492;42.646;23.400;2023-05-24T08:33:57;94882.88;;;27.20;35.50
22651;BME280;11492;42.646;23.400;2023-05-24T08:36:22;94882.22;;;27.09;33.79
22651;BME280;11492;42.646;23.400;2023-05-24T08:38:47;94876.66;;;27.06;33.87
22651;BME280;11492;42.646;23.400;2023-05-24T08:41:13;94876.00;;;27.42;34.52
22651;BME280;11492;42.646;23.400;2023-05-24T08:43:41;94879.63;;;27.51;32.72
22651;BME280;11492;42.646;23.400;2023-05-24T08:46:06;94879.84;;;27.72;32.41
22651;BME280;11492;42.646;23.400;2023-05-24T08:48:35;94876.41;;;27.54;31.82
22651;BME280;11492;42.646;23.400;2023-05-24T08:51:07;94883.72;;;27.84;31.66
22651;BME280;11492;42.646;23.400;2023-05-24T08:53:33;94883.25;;;28.32;31.04
22651;BME280;11492;42.646;23.400;2023-05-24T08:56:01;94873.59;;;28.54;30.27
22651;BME280;11492;42.646;23.400;2023-05-24T08:58:28;94876.28;;;28.99;30.55
22651;BME280;11492;42.646;23.400;2023-05-24T09:00:54;94871.47;;;28.69;29.08
22651;BME280;11492;42.646;23.400;2023-05-24T09:03:20;94875.13;;;28.73;29.63
22651;BME280;11492;42.646;23.400;2023-05-24T09:05:47;94877.69;;;28.78;29.74
22651;BME280;11492;42.646;23.400;2023-05-24T09:08:12;94875.03;;;28.91;30.04
22651;BME280;11492;42.646;23.400;2023-05-24T09:10:42;94877.56;;;29.01;29.13
22651;BME280;11492;42.646;23.400;2023-05-24T09:13:09;94881.78;;;29.02;28.98
22651;BME280;11492;42.646;23.400;2023-05-24T09:15:35;94885.56;;;29.14;28.30
22651;BME280;11492;42.646;23.400;2023-05-24T09:18:01;94878.84;;;29.04;27.81
22651;BME280;11492;42.646;23.400;2023-05-24T09:20:27;94875.00;;;29.09;27.76
22651;BME280;11492;42.646;23.400;2023-05-24T09:22:52;94870.09;;;29.30;28.60
22651;BME280;11492;42.646;23.400;2023-05-24T09:25:18;94875.22;;;29.53;28.62
22651;BME280;11492;42.646;23.400;2023-05-24T09:27:51;94876.59;;;29.63;26.66
22651;BME280;11492;42.646;23.400;2023-05-24T09:30:17;94874.16;;;30.02;26.53
22651;BME280;11492;42.646;23.400;2023-05-24T09:32:59;94871.34;;;30.20;25.26
22651;BME280;11492;42.646;23.400;2023-05-24T09:35:26;94858.09;;;30.28;25.45
22651;BME280;11492;42.646;23.400;2023-05-24T09:37:58;94873.78;;;30.51;25.69
22651;BME280;11492;42.646;23.400;2023-05-24T09:40:25;94877.72;;;30.54;25.39
22651;BME280;11492;42.646;23.400;2023-05-24T09:43:07;94870.59;;;30.62;25.38
22651;BME280;11492;42.646;23.400;2023-05-24T09:45:46;94864.91;;;30.42;25.82
22651;BME280;11492;42.646;23.400;2023-05-24T09:48:14;94861.69;;;30.10;26.23
22651;BME280;11492;42.646;23.400;2023-05-24T09:50:40;94858.72;;;29.77;26.88
22651;BME280;11492;42.646;23.400;2023-05-24T09:53:06;94863.00;;;30.00;26.50
22651;BME280;11492;42.646;23.400;2023-05-24T09:55:35;94854.69;;;30.36;26.04
22651;BME280;11492;42.646;23.400;2023-05-24T09:58:06;94856.00;;;30.60;26.58
22651;BME280;11492;42.646;23.400;2023-05-24T10:00:34;94857.84;;;30.81;26.59
22651;BME280;11492;42.646;23.400;2023-05-24T10:03:01;94861.81;;;30.92;25.17
22651;BME280;11492;42.646;23.400;2023-05-24T10:05:28;94855.50;;;30.88;26.30
22651;BME280;11492;42.646;23.400;2023-05-24T10:07:54;94860.09;;;31.26;25.05
22651;BME280;11492;42.646;23.400;2023-05-24T10:10:21;94843.78;;;31.35;24.94
22651;BME280;11492;42.646;23.400;2023-05-24T10:12:47;94845.19;;;31.63;24.71
22651;BME280;11492;42.646;23.400;2023-05-24T10:15:14;94849.13;;;31.74;24.29
22651;BME280;11492;42.646;23.400;2023-05-24T10:17:39;94862.03;;;31.88;23.77
22651;BME280;11492;42.646;23.400;2023-05-24T10:20:05;94840.47;;;31.77;23.00
22651;BME280;11492;42.646;23.400;2023-05-24T10:22:34;94845.66;;;31.73;23.83
22651;BME280;11492;42.646;23.400;2023-05-24T10:25:02;94851.16;;;31.68;24.14
22651;BME280;11492;42.646;23.400;2023-05-24T10:27:31;94851.31;;;31.80;23.61
22651;BME280;11492;42.646;23.400;2023-05-24T10:30:07;94835.13;;;31.68;24.75
22651;BME280;11492;42.646;23.400;2023-05-24T10:32:36;94847.56;;;31.81;24.05
22651;BME280;11492;42.646;23.400;2023-05-24T10:35:04;94839.97;;;31.66;24.36
22651;BME280;11492;42.646;23.400;2023-05-24T10:37:30;94844.13;;;31.89;24.08
22651;BME280;11492;42.646;23.400;2023-05-24T10:39:58;94841.41;;;31.72;24.12
22651;BME280;11492;42.646;23.400;2023-05-24T10:42:24;94839.53;;;31.81;24.30
22651;BME280;11492;42.646;23.400;2023-05-24T10:44:50;94839.06;;;31.96;23.45
22651;BME280;11492;42.646;23.400;2023-05-24T10:47:19;94833.28;;;32.10;23.56
22651;BME280;11492;42.646;23.400;2023-05-24T10:49:55;94820.56;;;32.24;23.54
22651;BME280;11492;42.646;23.400;2023-05-24T10:52:32;94818.19;;;32.31;22.51
22651;BME280;11492;42.646;23.400;2023-05-24T10:55:08;94815.66;;;32.26;22.09
22651;BME280;11492;42.646;23.400;2023-05-24T10:57:35;94817.84;;;32.41;22.57
22651;BME280;11492;42.646;23.400;2023-05-24T11:02:48;94812.81;;;31.98;23.31
22651;BME280;11492;42.646;23.400;2023-05-24T11:05:14;94817.19;;;31.69;23.52
22651;BME280;11492;42.646;23.400;2023-05-24T11:07:41;94810.91;;;31.82;24.02
22651;BME280;11492;42.646;23.400;2023-05-24T11:10:14;94808.69;;;31.67;23.75
22651;BME280;11492;42.646;23.400;2023-05-24T11:12:41;94810.47;;;31.88;23.88
22651;BME280;11492;42.646;23.400;2023-05-24T11:15:10;94807.63;;;32.09;23.26
22651;BME280;11492;42.646;23.400;2023-05-24T11:20:41;94810.31;;;32.35;23.61
22651;BME280;11492;42.646;23.400;2023-05-24T11:23:08;94807.56;;;32.59;23.91
22651;BME280;11492;42.646;23.400;2023-05-24T11:25:37;94808.84;;;32.70;23.47
22651;BME280;11492;42.646;23.400;2023-05-24T11:28:05;94801.94;;;32.53;23.55
22651;BME280;11492;42.646;23.400;2023-05-24T11:30:31;94805.56;;;33.02;24.97
22651;BME280;11492;42.646;23.400;2023-05-24T11:32:58;94803.06;;;33.13;22.78
22651;BME280;11492;42.646;23.400;2023-05-24T11:35:25;94797.69;;;33.42;23.54
22651;BME280;11492;42.646;23.400;2023-05-24T11:37:56;94797.13;;;33.57;23.22
22651;BME280;11492;42.646;23.400;2023-05-24T11:40:22;94793.06;;;33.51;23.18
22651;BME280;11492;42.646;23.400;2023-05-24T11:42:48;94790.97;;;33.64;22.54
22651;BME280;11492;42.646;23.400;2023-05-24T11:45:16;94792.53;;;33.65;22.64
22651;BME280;11492;42.646;23.400;2023-05-24T11:47:42;94782.75;;;33.69;22.24
22651;BME280;11492;42.646;23.400;2023-05-24T11:50:08;94779.78;;;33.62;22.49
22651;BME280;11492;42.646;23.400;2023-05-24T11:52:38;94782.81;;;33.81;22.09
22651;BME280;11492;42.646;23.400;2023-05-24T11:55:05;94777.25;;;33.58;22.14
22651;BME280;11492;42.646;23.400;2023-05-24T11:57:36;94770.03;;;33.30;22.40
22651;BME280;11492;42.646;23.400;2023-05-24T12:00:05;94757.97;;;33.15;22.58
22651;BME280;11492;42.646;23.400;2023-05-24T12:02:35;94766.16;;;33.19;21.83
22651;BME280;11492;42.646;23.400;2023-05-24T12:05:06;94763.06;;;33.00;22.38
22651;BME280;11492;42.646;23.400;2023-05-24T12:07:33;94768.69;;;32.70;23.11
22651;BME280;11492;42.646;23.400;2023-05-24T12:10:00;94765.47;;;32.85;23.04
22651;BME280;11492;42.646;23.400;2023-05-24T12:12:27;94768.69;;;33.44;22.10
22651;BME280;11492;42.646;23.400;2023-05-24T12:14:54;94762.63;;;33.55;22.47
22651;BME280;11492;42.646;23.400;2023-05-24T12:17:21;94760.44;;;33.77;22.22
22651;BME280;11492;42.646;23.400;2023-05-24T12:19:48;94756.91;;;33.85;22.18
22651;BME280;11492;42.646;23.400;2023-05-24T12:22:15;94747.59;;;33.83;22.08
22651;BME280;11492;42.646;23.400;2023-05-24T12:24:40;94751.97;;;34.07;22.04
22651;BME280;11492;42.646;23.400;2023-05-24T12:27:06;94753.88;;;34.27;21.89
22651;BME280;11492;42.646;23.400;2023-05-24T12:29:37;94746.72;;;34.31;22.24
22651;BME280;11492;42.646;23.400;2023-05-24T12:32:05;94740.81;;;34.37;21.84
22651;BME280;11492;42.646;23.400;2023-05-24T12:34:35;94747.91;;;34.53;21.72
22651;BME280;11492;42.646;23.400;2023-05-24T12:37:01;94749.69;;;34.17;21.54
22651;BME280;11492;42.646;23.400;2023-05-24T12:39:28;94744.53;;;33.72;21.40
22651;BME280;11492;42.646;23.400;2023-05-24T12:41:59;94736.31;;;33.29;22.31
22651;BME280;11492;42.646;23.400;2023-05-24T12:44:33;94744.63;;;33.36;23.38
22651;BME280;11492;42.646;23.400;2023-05-24T12:47:00;94746.47;;;33.15;21.90
22651;BME280;11492;42.646;23.400;2023-05-24T12:49:26;94735.19;;;32.48;22.74
22651;BME280;11492;42.646;23.400;2023-05-24T12:51:53;94737.16;;;32.06;23.34
22651;BME280;11492;42.646;23.400;2023-05-24T12:54:22;94732.91;;;31.55;23.68
22651;BME280;11492;42.646;23.400;2023-05-24T12:56:47;94719.13;;;31.06;23.90
22651;BME280;11492;42.646;23.400;2023-05-24T12:59:13;94729.06;;;30.67;25.05
22651;BME280;11492;42.646;23.400;2023-05-24T13:01:39;94732.59;;;30.25;25.61
22651;BME280;11492;42.646;23.400;2023-05-24T13:04:04;94735.25;;;30.03;25.55